Time;durP1;ratioP1;P1;durP2;ratioP2;P2;SDS_P1;SDS_P2;PMS_P1;PMS_P2;Temp;Humidity;BMP_temperature;BMP_pressure;BME280_temperature;BME280_humidity;BME280_pressure;Samples;Min_cycle;Max_cycle;Signal;HPM_P1;HPM_P2
2021/10/15 00:01:11;;;;;;;2.42;1.50;;;18.40;53.70;;;;;;5073035;28;20309;-51
2021/10/15 00:03:42;;;;;;;2.78;1.85;;;18.30;53.60;;;;;;5071310;28;20261;-53
2021/10/15 00:06:12;;;;;;;3.90;1.92;;;18.40;53.60;;;;;;5071192;28;20640;-48
2021/10/15 00:08:45;;;;;;;3.25;1.83;;;18.40;53.60;;;;;;5080180;28;20229;-53
2021/10/15 00:11:15;;;;;;;3.75;1.35;;;18.50;53.70;;;;;;5069827;28;20722;-53
2021/10/15 00:13:46;;;;;;;2.63;1.63;;;18.50;53.80;;;;;;5067074;28;20279;-52
2021/10/15 00:16:16;;;;;;;3.08;1.50;;;18.50;53.70;;;;;;5070822;28;20654;-52
2021/10/15 00:18:47;;;;;;;2.08;1.20;;;18.50;53.60;;;;;;5086093;28;20281;-46
2021/10/15 00:21:17;;;;;;;1.58;1.10;;;18.50;53.60;;;;;;5082697;28;20301;-52
2021/10/15 00:23:49;;;;;;;3.83;1.70;;;18.60;53.60;;;;;;5069282;28;20669;-51
2021/10/15 00:26:20;;;;;;;3.20;1.70;;;18.60;53.60;;;;;;5082348;28;20226;-48
2021/10/15 00:28:50;;;;;;;4.25;1.30;;;18.60;53.60;;;;;;5070605;28;20305;-50
2021/10/15 00:31:21;;;;;;;2.65;1.33;;;18.70;53.60;;;;;;5072876;28;20321;-55
2021/10/15 00:33:51;;;;;;;3.50;1.58;;;18.70;53.50;;;;;;5071223;28;20290;-47
2021/10/15 00:36:22;;;;;;;2.28;1.35;;;18.70;53.50;;;;;;5073269;28;20290;-56
2021/10/15 00:38:54;;;;;;;1.75;1.10;;;18.70;53.40;;;;;;5087481;28;20622;-48
2021/10/15 00:41:25;;;;;;;3.03;1.55;;;18.80;53.50;;;;;;5066269;28;20248;-51
2021/10/15 00:44:07;;;;;;;2.63;1.30;;;18.80;54.10;;;;;;5073820;28;20254;-49
2021/10/15 00:46:38;;;;;;;2.90;1.40;;;18.80;53.50;;;;;;5069055;28;20244;-55
2021/10/15 00:49:10;;;;;;;3.33;1.25;;;18.90;53.50;;;;;;5070345;28;20281;-51
2021/10/15 00:51:42;;;;;;;3.67;1.90;;;18.90;53.50;;;;;;5080701;28;20313;-54
2021/10/15 00:54:15;;;;;;;5.53;1.30;;;18.90;53.50;;;;;;5088577;28;20253;-45
2021/10/15 00:56:49;;;;;;;2.33;1.05;;;18.90;53.50;;;;;;5076906;28;20218;-52
2021/10/15 00:59:20;;;;;;;1.75;1.27;;;19.00;53.40;;;;;;5069391;28;20211;-54
2021/10/15 01:01:50;;;;;;;2.92;1.30;;;19.00;53.40;;;;;;5071283;28;20235;-54
2021/10/15 01:04:21;;;;;;;2.70;1.30;;;19.00;53.40;;;;;;5072536;28;20657;-56
2021/10/15 01:06:52;;;;;;;2.25;1.20;;;19.00;53.40;;;;;;5072069;28;20221;-56
2021/10/15 01:09:25;;;;;;;2.95;1.40;;;19.00;53.30;;;;;;5065160;28;20293;-56
2021/10/15 01:11:56;;;;;;;1.65;1.10;;;19.00;53.30;;;;;;5069326;28;20199;-54
2021/10/15 01:14:27;;;;;;;1.63;1.15;;;19.10;53.30;;;;;;5094177;28;20860;-52
2021/10/15 01:16:57;;;;;;;3.05;1.10;;;19.10;53.30;;;;;;5084718;28;20289;-53
2021/10/15 01:19:28;;;;;;;2.15;1.10;;;19.10;53.30;;;;;;5079787;28;20305;-47
2021/10/15 01:22:03;;;;;;;1.10;1.00;;;19.20;53.30;;;;;;5072055;28;20230;-53
2021/10/15 01:24:34;;;;;;;1.92;1.20;;;19.20;53.30;;;;;;5073992;28;20198;-43
2021/10/15 01:27:07;;;;;;;2.17;0.90;;;19.20;53.20;;;;;;5086596;28;20281;-54
2021/10/15 01:29:39;;;;;;;2.92;1.13;;;19.30;53.30;;;;;;5089433;28;20252;-47
2021/10/15 01:32:12;;;;;;;3.55;1.40;;;19.30;53.20;;;;;;5082697;28;20233;-50
2021/10/15 01:34:42;;;;;;;3.47;1.15;;;19.20;53.10;;;;;;5098425;28;20237;-50
2021/10/15 01:37:15;;;;;;;3.38;1.40;;;19.30;53.10;;;;;;5077719;28;20289;-46
2021/10/15 01:39:45;;;;;;;1.80;1.00;;;19.30;53.20;;;;;;5077697;28;20246;-51
2021/10/15 01:44:59;;;;;;;3.35;1.02;;;19.30;53.10;;;;;;5084398;28;20198;-46
2021/10/15 01:47:29;;;;;;;3.03;1.05;;;19.40;53.10;;;;;;5073887;28;20217;-47
2021/10/15 01:50:00;;;;;;;1.77;0.93;;;19.40;53.00;;;;;;5095563;28;20264;-52
2021/10/15 01:52:32;;;;;;;2.08;1.02;;;19.40;53.10;;;;;;5070499;28;20741;-47
2021/10/15 01:55:03;;;;;;;1.70;0.98;;;19.40;53.10;;;;;;5080108;28;20226;-43
2021/10/15 01:57:33;;;;;;;2.55;0.90;;;19.40;53.00;;;;;;5076721;28;20823;-55
2021/10/15 02:00:04;;;;;;;1.75;0.90;;;19.50;53.00;;;;;;5092663;28;20305;-52
2021/10/15 02:02:34;;;;;;;1.10;0.90;;;19.40;52.90;;;;;;5082410;28;20199;-50
2021/10/15 02:05:05;;;;;;;2.13;1.08;;;19.50;53.00;;;;;;5080204;28;20242;-51
2021/10/15 02:07:37;;;;;;;2.78;1.10;;;19.50;52.90;;;;;;5075436;28;20289;-52
2021/10/15 02:10:10;;;;;;;2.38;1.00;;;19.50;52.90;;;;;;5078334;28;20232;-49
2021/10/15 02:12:41;;;;;;;1.70;0.80;;;19.50;52.80;;;;;;5072569;28;20214;-48
2021/10/15 02:15:13;;;;;;;2.55;0.90;;;19.60;52.80;;;;;;5075189;28;20199;-54
2021/10/15 02:17:44;;;;;;;2.42;1.05;;;19.60;52.80;;;;;;5074038;28;20281;-52
2021/10/15 02:20:16;;;;;;;1.95;0.90;;;19.60;52.80;;;;;;5084509;28;20268;-49
2021/10/15 02:22:50;;;;;;;3.42;1.33;;;19.60;52.70;;;;;;5083635;28;20278;-52
2021/10/15 02:25:22;;;;;;;1.50;1.10;;;19.60;52.70;;;;;;5073003;28;20286;-52
2021/10/15 02:27:52;;;;;;;4.32;1.25;;;19.70;52.80;;;;;;5073548;28;20637;-51
2021/10/15 02:30:23;;;;;;;2.03;1.00;;;19.70;52.70;;;;;;5073039;28;20310;-55
2021/10/15 02:32:54;;;;;;;1.42;0.80;;;19.70;52.70;;;;;;5073990;28;20267;-49
2021/10/15 02:35:24;;;;;;;1.75;1.05;;;19.70;52.60;;;;;;5074118;28;20707;-53
2021/10/15 02:38:00;;;;;;;1.15;0.90;;;19.70;52.50;;;;;;5073797;28;20287;-48
2021/10/15 02:40:31;;;;;;;1.58;0.98;;;19.80;52.70;;;;;;5087072;28;20228;-51
2021/10/15 02:43:02;;;;;;;1.48;0.90;;;19.80;52.60;;;;;;5088976;28;20244;-53
2021/10/15 02:45:36;;;;;;;2.47;0.80;;;19.80;52.60;;;;;;5080156;28;20315;-53
2021/10/15 02:48:08;;;;;;;2.60;0.82;;;19.80;52.50;;;;;;5085288;28;20194;-56
2021/10/15 02:50:39;;;;;;;1.92;0.88;;;19.80;52.50;;;;;;5081767;28;20321;-52
2021/10/15 02:53:12;;;;;;;2.75;1.05;;;19.80;52.40;;;;;;5089667;28;20206;-54
2021/10/15 02:55:42;;;;;;;2.65;1.10;;;19.90;52.40;;;;;;5089602;28;20298;-53
2021/10/15 02:58:13;;;;;;;1.88;0.80;;;19.90;52.30;;;;;;5097265;28;20199;-53
2021/10/15 03:00:43;;;;;;;2.13;1.00;;;19.90;52.30;;;;;;5073107;28;20301;-51
2021/10/15 03:03:14;;;;;;;2.83;1.00;;;19.90;52.20;;;;;;5073586;28;20233;-48
2021/10/15 03:05:44;;;;;;;3.00;1.08;;;19.90;52.30;;;;;;5078407;28;20664;-53
2021/10/15 03:08:17;;;;;;;3.53;0.90;;;19.90;52.30;;;;;;5072781;28;20226;-52
2021/10/15 03:10:47;;;;;;;3.15;0.88;;;19.90;52.30;;;;;;5085304;28;20307;-51
2021/10/15 03:13:18;;;;;;;3.40;1.05;;;19.90;52.30;;;;;;5079913;28;20285;-53
2021/10/15 03:15:48;;;;;;;3.78;1.00;;;20.00;52.30;;;;;;5070923;28;20684;-50
2021/10/15 03:18:19;;;;;;;2.83;1.25;;;20.00;52.40;;;;;;5071368;28;20734;-51
2021/10/15 03:20:50;;;;;;;3.33;0.93;;;20.00;52.30;;;;;;5076313;28;20254;-55
2021/10/15 03:23:22;;;;;;;3.03;1.05;;;20.00;52.30;;;;;;5091554;28;20217;-49
2021/10/15 03:25:52;;;;;;;2.15;1.10;;;20.00;52.20;;;;;;5073541;28;20293;-51
2021/10/15 03:28:23;;;;;;;2.42;0.95;;;20.00;52.10;;;;;;5079889;28;20234;-50
2021/10/15 03:30:54;;;;;;;3.22;0.88;;;20.00;52.10;;;;;;5074578;28;21022;-49
2021/10/15 03:33:25;;;;;;;2.45;1.20;;;20.10;52.10;;;;;;5091762;28;20230;-54
2021/10/15 03:35:55;;;;;;;1.55;0.90;;;20.00;52.10;;;;;;5073640;28;20222;-45
2021/10/15 03:38:28;;;;;;;2.90;1.10;;;20.10;52.00;;;;;;5078975;28;20253;-48
2021/10/15 03:40:58;;;;;;;3.15;1.20;;;20.10;52.00;;;;;;5071063;28;20308;-48
2021/10/15 03:43:29;;;;;;;3.17;1.00;;;20.10;52.00;;;;;;5089999;28;20241;-54
2021/10/15 03:45:59;;;;;;;2.72;1.08;;;20.00;52.00;;;;;;5090673;28;20281;-55
2021/10/15 03:48:29;;;;;;;2.30;1.15;;;20.10;52.00;;;;;;5087466;28;20712;-51
2021/10/15 03:51:00;;;;;;;1.92;0.93;;;20.10;52.00;;;;;;5072009;28;20321;-53
2021/10/15 03:53:32;;;;;;;2.85;1.10;;;20.00;51.90;;;;;;5072495;28;20367;-49
2021/10/15 03:56:03;;;;;;;2.38;1.00;;;20.10;52.00;;;;;;5074905;28;20233;-50
2021/10/15 03:58:33;;;;;;;4.20;1.10;;;20.10;52.00;;;;;;5071478;28;20229;-48
2021/10/15 04:01:04;;;;;;;1.83;1.13;;;20.10;52.00;;;;;;5074764;28;20309;-51
2021/10/15 04:03:34;;;;;;;2.20;1.13;;;20.10;51.90;;;;;;5070419;28;20206;-46
2021/10/15 04:06:05;;;;;;;2.45;0.98;;;20.10;52.00;;;;;;5069615;28;20240;-46
2021/10/15 04:08:37;;;;;;;3.60;1.10;;;20.10;51.90;;;;;;5071668;28;20203;-49
2021/10/15 04:11:08;;;;;;;3.53;1.20;;;20.10;51.90;;;;;;5071863;28;20808;-51
2021/10/15 04:13:38;;;;;;;2.35;1.20;;;20.10;51.80;;;;;;5069762;28;20282;-48
2021/10/15 04:16:08;;;;;;;3.13;1.02;;;20.10;51.80;;;;;;5069092;28;20233;-47
2021/10/15 04:18:39;;;;;;;2.83;1.30;;;20.10;51.80;;;;;;5093568;28;20268;-47
2021/10/15 04:21:09;;;;;;;2.53;1.15;;;20.10;51.80;;;;;;5075250;28;20250;-43
2021/10/15 04:23:42;;;;;;;2.58;1.02;;;20.10;51.70;;;;;;5088627;28;20611;-47
2021/10/15 04:26:12;;;;;;;3.30;1.05;;;20.10;51.80;;;;;;5068376;28;20324;-46
2021/10/15 04:28:43;;;;;;;2.55;1.20;;;20.10;51.80;;;;;;5073443;28;20805;-48
2021/10/15 04:31:13;;;;;;;3.28;1.20;;;20.10;51.80;;;;;;5075056;28;20317;-43
2021/10/15 04:33:44;;;;;;;3.92;1.33;;;20.10;51.70;;;;;;5078365;28;20727;-44
2021/10/15 04:36:15;;;;;;;3.33;1.35;;;20.10;51.80;;;;;;5077056;28;20245;-48
2021/10/15 04:38:48;;;;;;;2.03;0.98;;;20.10;51.70;;;;;;5077325;28;20233;-43
2021/10/15 04:41:18;;;;;;;3.30;1.02;;;20.10;51.70;;;;;;5085894;28;20236;-47
2021/10/15 04:43:49;;;;;;;4.53;1.55;;;20.00;51.70;;;;;;5075314;28;20237;-47
2021/10/15 04:46:19;;;;;;;3.67;1.33;;;20.00;51.70;;;;;;5077098;28;20239;-51
2021/10/15 04:48:50;;;;;;;4.65;1.00;;;20.00;51.70;;;;;;5072587;28;20273;-52
2021/10/15 04:51:20;;;;;;;3.13;1.33;;;20.00;51.70;;;;;;5090235;28;20268;-46
2021/10/15 04:53:53;;;;;;;4.32;1.30;;;20.00;51.70;;;;;;5089930;28;20226;-51
2021/10/15 04:56:23;;;;;;;2.08;1.00;;;20.00;51.70;;;;;;5088199;28;20230;-46
2021/10/15 04:58:54;;;;;;;5.47;1.42;;;20.00;51.70;;;;;;5090906;28;20260;-46
2021/10/15 05:01:24;;;;;;;3.83;1.42;;;20.00;51.70;;;;;;5073546;28;20238;-47
2021/10/15 05:03:55;;;;;;;2.08;0.88;;;20.00;51.80;;;;;;5078154;28;20629;-48
2021/10/15 05:06:25;;;;;;;5.05;1.20;;;20.00;51.80;;;;;;5077746;28;20290;-45
2021/10/15 05:09:14;;;;;;;5.43;1.38;;;20.00;51.70;;;;;;5075909;28;20230;-50
2021/10/15 05:11:48;;;;;;;3.53;1.45;;;20.00;51.80;;;;;;5075753;28;20226;-48
2021/10/15 05:14:18;;;;;;;4.20;1.33;;;20.00;51.80;;;;;;5075592;28;20227;-46
2021/10/15 05:16:48;;;;;;;2.83;1.27;;;20.00;51.80;;;;;;5074093;28;20227;-50
2021/10/15 05:19:19;;;;;;;2.78;1.20;;;20.00;51.80;;;;;;5078719;28;21972;-45
2021/10/15 05:21:49;;;;;;;3.33;1.50;;;20.00;51.80;;;;;;5083160;28;20285;-47
2021/10/15 05:24:22;;;;;;;2.58;1.08;;;20.00;51.80;;;;;;5074445;28;20281;-48
2021/10/15 05:26:53;;;;;;;3.05;1.13;;;20.00;51.80;;;;;;5081378;28;20271;-46
2021/10/15 05:29:24;;;;;;;2.25;1.00;;;20.00;51.80;;;;;;5074772;28;20257;-48
2021/10/15 05:31:54;;;;;;;3.60;1.50;;;19.90;51.80;;;;;;5075623;28;20301;-45
2021/10/15 05:34:25;;;;;;;1.75;1.00;;;20.00;51.80;;;;;;5089765;28;20231;-49
2021/10/15 05:36:55;;;;;;;3.40;1.40;;;19.90;51.80;;;;;;5075946;28;20286;-48
2021/10/15 05:39:28;;;;;;;3.13;1.30;;;19.90;51.70;;;;;;5073612;28;20309;-52
2021/10/15 05:41:58;;;;;;;2.38;1.00;;;20.00;51.90;;;;;;5073748;28;20222;-45
2021/10/15 05:44:29;;;;;;;4.13;1.13;;;20.00;51.90;;;;;;5074985;28;20662;-52
2021/10/15 05:46:59;;;;;;;5.05;1.30;;;20.00;51.80;;;;;;5075763;28;20315;-46
2021/10/15 05:49:30;;;;;;;3.30;1.33;;;19.90;51.80;;;;;;5075193;28;20246;-52
2021/10/15 05:52:06;;;;;;;3.05;1.10;;;20.00;51.80;;;;;;5075380;28;20275;-45
2021/10/15 05:54:53;;;;;;;3.58;1.30;;;20.00;51.80;;;;;;5074438;28;20259;-55
2021/10/15 06:00:16;;;;;;;1.95;1.17;;;20.00;51.70;;;;;;5074552;28;20581;-49
2021/10/15 06:02:46;;;;;;;3.72;1.38;;;20.00;51.70;;;;;;5075283;28;20234;-44
2021/10/15 06:16:25;;;;;;;3.72;1.10;;;19.90;51.60;;;;;;5074603;28;20210;-51
2021/10/15 06:18:58;;;;;;;2.63;1.35;;;19.90;51.60;;;;;;5073201;28;20662;-49
2021/10/15 06:21:28;;;;;;;1.65;1.10;;;19.90;51.70;;;;;;5074342;28;20206;-51
2021/10/15 06:23:59;;;;;;;2.42;1.10;;;19.90;51.70;;;;;;5073022;28;20226;-50
2021/10/15 06:26:31;;;;;;;2.08;1.20;;;19.90;51.70;;;;;;5075953;28;20277;-52
2021/10/15 06:29:02;;;;;;;2.97;1.30;;;19.90;51.60;;;;;;5074255;28;20231;-45
2021/10/15 06:31:32;;;;;;;2.78;1.27;;;19.90;51.70;;;;;;5073708;28;20297;-51
2021/10/15 06:34:03;;;;;;;2.55;1.20;;;19.90;51.60;;;;;;5076109;28;20245;-47
2021/10/15 06:36:33;;;;;;;3.65;1.10;;;19.80;51.60;;;;;;5075121;28;20761;-48
2021/10/15 06:39:04;;;;;;;5.22;1.35;;;19.80;51.60;;;;;;5075336;28;20610;-51
2021/10/15 06:41:36;;;;;;;3.95;1.10;;;19.80;51.60;;;;;;5073040;28;20226;-46
2021/10/15 06:44:08;;;;;;;3.03;1.08;;;19.80;51.60;;;;;;5073978;28;20667;-51
2021/10/15 06:46:38;;;;;;;3.45;1.35;;;19.80;51.60;;;;;;5073525;28;20290;-47
2021/10/15 06:49:09;;;;;;;4.53;1.33;;;19.80;51.60;;;;;;5074439;28;20241;-51
2021/10/15 06:51:40;;;;;;;3.60;1.40;;;19.80;51.60;;;;;;5080254;28;20300;-52
2021/10/15 06:54:10;;;;;;;2.22;1.08;;;19.70;51.60;;;;;;5077317;28;20238;-48
2021/10/15 06:56:42;;;;;;;2.28;1.08;;;19.70;52.30;;;;;;5073366;28;20226;-44
2021/10/15 06:59:13;;;;;;;2.75;1.00;;;19.70;51.70;;;;;;5073170;28;20230;-53
2021/10/15 07:01:43;;;;;;;1.42;1.00;;;19.70;51.70;;;;;;5073091;28;20263;-51
2021/10/15 07:04:14;;;;;;;2.63;1.00;;;19.70;51.80;;;;;;5078196;28;20256;-49
2021/10/15 07:06:44;;;;;;;3.15;1.13;;;19.60;51.70;;;;;;5084659;28;21539;-50
2021/10/15 07:09:15;;;;;;;2.75;1.20;;;19.60;52.30;;;;;;5072281;28;20235;-43
2021/10/15 07:11:47;;;;;;;2.08;1.10;;;19.60;53.00;;;;;;5072049;28;20249;-44
2021/10/15 07:14:18;;;;;;;3.95;1.30;;;19.60;53.20;;;;;;5082187;28;20259;-48
2021/10/15 07:16:49;;;;;;;2.85;1.40;;;19.70;53.20;;;;;;5073677;28;20257;-48
2021/10/15 07:19:19;;;;;;;3.13;1.33;;;19.60;53.10;;;;;;5071844;28;20230;-47
2021/10/15 07:21:50;;;;;;;3.17;1.10;;;19.60;52.90;;;;;;5072624;28;20279;-48
2021/10/15 07:24:20;;;;;;;1.70;1.13;;;19.60;52.80;;;;;;5074077;28;20234;-49
2021/10/15 07:26:53;;;;;;;2.80;1.35;;;19.60;52.80;;;;;;5074019;28;20290;-49
2021/10/15 07:29:23;;;;;;;1.63;1.05;;;19.60;53.40;;;;;;5073694;28;20645;-44
2021/10/15 07:31:54;;;;;;;3.25;1.60;;;19.60;52.80;;;;;;5071924;28;20265;-45
2021/10/15 07:34:24;;;;;;;3.13;1.23;;;19.50;52.70;;;;;;5078489;28;20241;-45
2021/10/15 07:36:54;;;;;;;3.38;1.42;;;19.50;52.70;;;;;;5080398;28;20227;-45
2021/10/15 07:39:25;;;;;;;2.15;1.02;;;19.50;52.70;;;;;;5073330;28;20648;-48
2021/10/15 07:41:57;;;;;;;3.75;1.30;;;19.50;52.70;;;;;;5073740;28;20230;-45
2021/10/15 07:44:28;;;;;;;2.92;1.48;;;19.40;52.70;;;;;;5072004;28;20229;-46
2021/10/15 07:46:59;;;;;;;3.03;1.13;;;19.40;52.70;;;;;;5071879;28;20234;-49
2021/10/15 07:49:29;;;;;;;5.57;1.88;;;19.40;52.70;;;;;;5072258;28;20249;-48
2021/10/15 07:52:00;;;;;;;2.42;1.33;;;19.40;52.70;;;;;;5089978;28;20304;-48
2021/10/15 07:54:30;;;;;;;3.17;1.60;;;19.40;52.70;;;;;;5071453;28;20253;-49
2021/10/15 07:57:04;;;;;;;3.47;1.60;;;19.40;52.70;;;;;;5072469;28;20257;-46
2021/10/15 07:59:35;;;;;;;2.42;1.42;;;19.30;52.70;;;;;;5072098;28;20722;-44
2021/10/15 08:02:05;;;;;;;2.65;1.17;;;19.30;52.70;;;;;;5073499;28;20728;-50
2021/10/15 08:04:36;;;;;;;3.97;1.20;;;19.30;52.60;;;;;;5078172;28;20252;-49
2021/10/15 08:07:07;;;;;;;4.80;1.48;;;19.30;52.60;;;;;;5075470;28;20234;-49
2021/10/15 08:09:37;;;;;;;3.10;1.50;;;19.30;52.60;;;;;;5071299;28;20250;-45
2021/10/15 08:12:10;;;;;;;3.85;1.30;;;19.20;52.60;;;;;;5071317;28;20262;-49
2021/10/15 08:14:41;;;;;;;4.18;1.30;;;19.20;53.20;;;;;;5071776;28;20674;-47
2021/10/15 08:17:11;;;;;;;2.72;1.52;;;19.20;52.60;;;;;;5067111;28;20226;-49
2021/10/15 08:19:43;;;;;;;3.38;1.35;;;19.20;52.60;;;;;;5089033;28;20225;-47
2021/10/15 08:22:13;;;;;;;3.35;1.15;;;19.20;52.70;;;;;;5086390;28;20226;-49
2021/10/15 08:24:44;;;;;;;4.03;1.25;;;19.10;52.70;;;;;;5078866;28;20289;-48
2021/10/15 08:27:16;;;;;;;3.33;1.50;;;19.10;52.70;;;;;;5068393;28;20227;-47
2021/10/15 08:29:47;;;;;;;1.90;1.30;;;19.10;52.70;;;;;;5072173;28;20249;-46
2021/10/15 08:32:17;;;;;;;2.20;1.02;;;19.10;52.70;;;;;;5068500;28;20882;-45
2021/10/15 08:34:48;;;;;;;2.35;1.30;;;19.10;52.70;;;;;;5076571;28;20236;-49
2021/10/15 08:37:18;;;;;;;2.72;1.45;;;19.00;52.70;;;;;;5069773;28;20222;-49
2021/10/15 08:39:49;;;;;;;2.72;1.40;;;19.00;52.70;;;;;;5085997;28;20260;-46
2021/10/15 08:42:21;;;;;;;3.33;1.48;;;19.00;52.60;;;;;;5070487;28;20261;-48
2021/10/15 08:44:52;;;;;;;2.78;1.23;;;19.00;52.70;;;;;;5070979;28;20249;-47
2021/10/15 08:47:22;;;;;;;2.35;1.35;;;19.00;52.70;;;;;;5075120;28;20284;-44
2021/10/15 08:49:53;;;;;;;2.75;1.40;;;19.00;52.70;;;;;;5091577;28;20252;-46
2021/10/15 08:52:23;;;;;;;2.00;1.33;;;19.00;52.70;;;;;;5082876;28;20664;-48
2021/10/15 08:54:54;;;;;;;1.85;1.20;;;18.90;52.70;;;;;;5073052;28;20292;-48
2021/10/15 08:57:26;;;;;;;2.25;1.23;;;18.90;52.70;;;;;;5095913;28;20266;-48
2021/10/15 08:59:56;;;;;;;1.30;1.02;;;18.90;52.70;;;;;;5077614;28;20257;-48
2021/10/15 09:02:27;;;;;;;3.42;1.20;;;18.90;52.70;;;;;;5089873;28;20245;-49
2021/10/15 09:05:00;;;;;;;2.22;1.08;;;18.80;52.70;;;;;;5082475;28;20732;-43
2021/10/15 09:07:30;;;;;;;2.55;1.25;;;18.80;52.70;;;;;;5085123;28;20226;-50
2021/10/15 09:10:11;;;;;;;2.53;1.30;;;18.80;52.60;;;;;;5075220;28;20735;-47
2021/10/15 09:12:56;;;;;;;1.75;1.17;;;18.80;52.70;;;;;;5098132;28;20305;-47
2021/10/15 09:15:34;;;;;;;2.78;1.58;;;18.80;52.70;;;;;;5079245;28;20195;-49
2021/10/15 09:18:14;;;;;;;2.00;1.38;;;18.80;52.70;;;;;;5080948;28;20238;-49
2021/10/15 09:20:46;;;;;;;2.22;1.17;;;18.80;52.70;;;;;;5068566;28;20215;-46
2021/10/15 09:23:18;;;;;;;1.70;1.10;;;18.70;52.60;;;;;;5072896;28;20203;-51
2021/10/15 09:25:50;;;;;;;1.10;0.95;;;18.70;52.60;;;;;;5074345;28;20194;-47
2021/10/15 09:28:23;;;;;;;2.10;1.25;;;18.70;52.70;;;;;;5066069;28;20539;-45
2021/10/15 09:30:54;;;;;;;2.45;1.60;;;18.70;53.30;;;;;;5088090;28;20567;-48
2021/10/15 09:33:25;;;;;;;1.98;1.25;;;18.70;52.70;;;;;;5071797;28;20310;-52
2021/10/15 09:38:51;;;;;;;1.23;1.05;;;18.60;52.70;;;;;;5058758;28;20635;-50
2021/10/15 09:41:42;;;;;;;2.15;1.45;;;18.60;52.70;;;;;;5073454;28;20214;-49
2021/10/15 09:44:36;;;;;;;2.55;1.25;;;18.60;52.70;;;;;;5073219;28;20684;-45
2021/10/15 09:47:18;;;;;;;2.03;1.23;;;18.60;52.70;;;;;;5083614;28;20198;-45
2021/10/15 09:50:00;;;;;;;2.83;1.35;;;18.50;52.60;;;;;;5070608;28;20250;-47
2021/10/15 09:52:36;;;;;;;1.30;1.20;;;18.50;52.60;;;;;;5070361;28;20307;-49
2021/10/15 09:55:15;;;;;;;1.60;1.30;;;18.50;52.60;;;;;;5086059;28;20226;-46
2021/10/15 09:57:47;;;;;;;2.03;1.40;;;18.50;52.60;;;;;;5073348;28;20202;-48
2021/10/15 10:00:22;;;;;;;2.38;1.40;;;18.50;52.60;;;;;;5070619;28;20249;-48
2021/10/15 10:02:52;;;;;;;2.00;1.45;;;18.40;52.60;;;;;;5069444;28;20301;-47
2021/10/15 10:05:23;;;;;;;1.73;1.20;;;18.40;52.70;;;;;;5077455;28;20297;-47
2021/10/15 10:07:55;;;;;;;1.23;1.00;;;18.40;52.60;;;;;;5077058;28;20294;-48
2021/10/15 10:10:26;;;;;;;1.70;1.20;;;18.40;52.60;;;;;;5092311;28;20252;-50
2021/10/15 10:12:58;;;;;;;1.20;1.10;;;18.40;52.70;;;;;;5069084;28;20656;-48
2021/10/15 10:15:31;;;;;;;2.40;1.50;;;18.40;52.70;;;;;;5077265;28;20226;-48
2021/10/15 10:18:12;;;;;;;1.60;1.13;;;18.30;52.60;;;;;;5067747;28;20317;-48
2021/10/15 10:20:47;;;;;;;3.05;1.23;;;18.30;52.70;;;;;;5080950;28;20635;-45
2021/10/15 10:23:24;;;;;;;2.03;1.40;;;18.30;52.70;;;;;;5079275;28;20198;-48
2021/10/15 10:26:00;;;;;;;1.83;1.33;;;18.30;52.70;;;;;;5072066;28;20285;-51
2021/10/15 10:28:31;;;;;;;1.60;1.13;;;18.20;52.70;;;;;;5072518;28;20290;-48
2021/10/15 10:31:05;;;;;;;1.42;1.20;;;18.20;52.60;;;;;;5072556;28;20268;-50
2021/10/15 10:33:53;;;;;;;1.90;1.20;;;18.20;52.70;;;;;;5080746;28;20237;-50
2021/10/15 10:36:24;;;;;;;2.17;1.20;;;18.20;52.80;;;;;;5073728;28;20276;-50
2021/10/15 10:38:55;;;;;;;2.08;1.20;;;18.20;52.80;;;;;;5072843;28;20282;-46
2021/10/15 10:41:31;;;;;;;1.58;0.93;;;18.20;52.80;;;;;;5073119;28;20662;-51
2021/10/15 10:44:15;;;;;;;1.98;1.20;;;18.20;52.80;;;;;;5073656;28;20293;-46
2021/10/15 10:47:10;;;;;;;2.08;1.20;;;18.10;52.80;;;;;;5072690;28;20717;-45
2021/10/15 10:49:41;;;;;;;1.85;1.38;;;18.10;53.30;;;;;;5072795;28;20268;-48
2021/10/15 10:52:22;;;;;;;2.88;1.63;;;18.10;52.70;;;;;;5073618;28;20290;-47
2021/10/15 10:54:53;;;;;;;1.80;1.40;;;18.10;52.80;;;;;;5073621;28;20242;-43
2021/10/15 10:57:26;;;;;;;2.55;1.63;;;18.10;52.70;;;;;;5074736;28;20230;-43
2021/10/15 11:00:19;;;;;;;2.15;1.40;;;18.10;52.80;;;;;;5072754;28;20260;-45
2021/10/15 11:02:53;;;;;;;1.50;1.30;;;18.00;52.70;;;;;;5074102;28;20203;-46
2021/10/15 11:05:37;;;;;;;2.40;1.42;;;18.00;52.70;;;;;;5086858;28;20201;-50
2021/10/15 11:08:32;;;;;;;2.70;1.45;;;18.00;52.80;;;;;;5074024;28;20234;-44
2021/10/15 11:11:47;;;;;;;3.25;1.83;;;18.00;52.80;;;;;;5072424;28;20226;-48
2021/10/15 11:14:51;;;;;;;1.65;1.40;;;18.00;52.80;;;;;;5074529;28;20267;-50
2021/10/15 11:17:32;;;;;;;1.98;1.60;;;18.00;52.80;;;;;;5086970;28;20373;-52
2021/10/15 11:20:17;;;;;;;2.05;1.63;;;18.00;52.80;;;;;;5085806;28;20271;-48
2021/10/15 11:22:52;;;;;;;2.63;1.60;;;17.90;52.80;;;;;;5072566;28;20229;-46
2021/10/15 11:25:24;;;;;;;2.22;1.35;;;17.90;52.80;;;;;;5071872;28;20238;-46
2021/10/15 11:27:57;;;;;;;2.25;1.80;;;17.90;52.80;;;;;;5072277;28;20226;-47
2021/10/15 11:30:28;;;;;;;2.83;1.98;;;17.90;52.70;;;;;;5088566;28;20214;-44
2021/10/15 11:32:59;;;;;;;2.60;1.63;;;17.90;52.80;;;;;;5071491;28;20705;-46
2021/10/15 11:35:33;;;;;;;2.67;1.80;;;17.90;52.80;;;;;;5086604;28;20205;-49
2021/10/15 11:38:08;;;;;;;4.40;1.60;;;17.90;52.80;;;;;;5072294;28;20230;-44
2021/10/15 11:40:40;;;;;;;1.98;1.42;;;17.80;52.80;;;;;;5073058;28;20250;-45
2021/10/15 11:43:15;;;;;;;2.53;1.75;;;17.80;52.80;;;;;;5072579;28;20689;-46
2021/10/15 11:45:47;;;;;;;2.33;1.60;;;17.80;52.80;;;;;;5072228;28;20552;-48
2021/10/15 11:48:18;;;;;;;2.45;1.60;;;17.80;52.80;;;;;;5071968;28;20227;-47
2021/10/15 11:50:53;;;;;;;4.32;1.70;;;17.80;53.00;;;;;;5073404;28;20255;-47
2021/10/15 11:53:26;;;;;;;3.03;1.70;;;17.70;52.80;;;;;;5071950;28;20253;-47
2021/10/15 11:55:57;;;;;;;2.58;1.70;;;17.70;52.80;;;;;;5071748;28;20245;-45
2021/10/15 11:58:36;;;;;;;2.47;1.83;;;17.70;52.80;;;;;;5071934;28;20239;-47
2021/10/15 12:01:19;;;;;;;3.17;1.90;;;17.70;52.80;;;;;;5071717;28;20314;-46
2021/10/15 12:03:52;;;;;;;2.33;1.65;;;17.70;52.80;;;;;;5073288;28;20194;-43
2021/10/15 12:06:29;;;;;;;2.00;1.63;;;17.70;52.80;;;;;;5082568;28;20230;-47
2021/10/15 12:09:02;;;;;;;2.78;1.70;;;17.70;52.80;;;;;;5073218;28;20241;-49
2021/10/15 12:11:55;;;;;;;2.17;1.77;;;17.60;52.70;;;;;;5073059;28;20245;-44
2021/10/15 12:14:27;;;;;;;3.13;1.80;;;17.60;52.70;;;;;;5082753;28;20265;-46
2021/10/15 12:16:59;;;;;;;3.83;1.70;;;17.60;52.70;;;;;;5071276;28;20253;-45
2021/10/15 12:19:32;;;;;;;3.10;1.75;;;17.60;52.70;;;;;;5073157;28;20666;-47
2021/10/15 12:22:10;;;;;;;2.80;1.77;;;17.50;52.70;;;;;;5072634;28;20639;-47
2021/10/15 12:24:42;;;;;;;1.67;1.52;;;17.50;52.70;;;;;;5070149;28;20229;-44
2021/10/15 12:27:17;;;;;;;2.03;1.60;;;17.50;52.70;;;;;;5074833;28;20281;-44
2021/10/15 12:29:50;;;;;;;2.13;1.67;;;17.50;52.70;;;;;;5075023;28;20263;-48
2021/10/15 12:32:25;;;;;;;1.83;1.50;;;17.50;52.80;;;;;;5070632;28;20233;-46
2021/10/15 12:35:04;;;;;;;2.28;1.90;;;17.40;52.80;;;;;;5079109;28;20321;-47
2021/10/15 12:37:39;;;;;;;2.10;1.50;;;17.40;52.80;;;;;;5070554;28;20191;-50
2021/10/15 12:40:24;;;;;;;3.78;1.60;;;17.40;52.70;;;;;;5071691;28;20699;-47
2021/10/15 12:43:09;;;;;;;1.73;1.60;;;17.40;52.80;;;;;;5071619;28;20324;-43
2021/10/15 12:45:41;;;;;;;2.63;1.88;;;17.40;52.80;;;;;;5071166;28;20697;-47
2021/10/15 12:48:17;;;;;;;2.83;1.80;;;17.40;52.80;;;;;;5071800;28;20234;-49
2021/10/15 12:51:01;;;;;;;2.22;1.80;;;17.40;52.80;;;;;;5071767;28;20697;-49
2021/10/15 12:53:39;;;;;;;2.95;1.75;;;17.30;52.70;;;;;;5071561;28;20309;-47
2021/10/15 12:56:16;;;;;;;1.95;1.58;;;17.30;52.70;;;;;;5072306;28;20237;-43
2021/10/15 12:58:50;;;;;;;2.03;1.40;;;17.30;52.70;;;;;;5072252;28;20324;-49
2021/10/15 13:01:25;;;;;;;3.22;1.88;;;17.30;52.80;;;;;;5072583;28;20249;-48
2021/10/15 13:03:56;;;;;;;3.40;1.90;;;17.30;52.80;;;;;;5072394;28;20241;-44
2021/10/15 13:06:27;;;;;;;2.10;1.73;;;17.20;52.80;;;;;;5071039;28;20262;-50
2021/10/15 13:08:59;;;;;;;2.65;1.60;;;17.20;52.90;;;;;;5081342;28;20300;-43
2021/10/15 13:11:31;;;;;;;2.53;1.50;;;17.20;52.80;;;;;;5083562;28;20285;-44
2021/10/15 13:14:01;;;;;;;2.58;1.45;;;17.20;52.90;;;;;;5076570;28;20222;-44
2021/10/15 13:16:32;;;;;;;2.15;1.42;;;17.20;53.50;;;;;;5074962;28;20253;-45
2021/10/15 13:19:02;;;;;;;2.65;1.60;;;17.10;52.90;;;;;;5076421;28;20227;-44
2021/10/15 13:21:34;;;;;;;2.17;1.60;;;17.10;52.80;;;;;;5076414;28;20226;-46
2021/10/15 13:24:07;;;;;;;1.92;1.42;;;17.10;52.80;;;;;;5076043;28;20202;-44
2021/10/15 13:26:38;;;;;;;1.95;1.33;;;17.10;52.90;;;;;;5074946;28;20230;-51
2021/10/15 13:29:09;;;;;;;1.98;1.60;;;17.10;52.90;;;;;;5074194;28;20198;-47
2021/10/15 13:31:39;;;;;;;3.30;1.80;;;17.10;52.90;;;;;;5074596;28;20319;-49
2021/10/15 13:34:10;;;;;;;2.90;1.70;;;17.10;52.80;;;;;;5077486;28;20304;-48
2021/10/15 13:36:42;;;;;;;2.80;1.85;;;17.00;52.80;;;;;;5075403;28;20215;-51